sensor_id;sensor_type;location;lat;lon;timestamp;temperature;humidity
49503;DHT22;35409;48.776;9.204;2023-02-23T00:01:24;7.70;99.90
49503;DHT22;35409;48.776;9.204;2023-02-23T00:03:52;7.70;99.90
49503;DHT22;35409;48.776;9.204;2023-02-23T00:06:19;7.80;99.90
49503;DHT22;35409;48.776;9.204;2023-02-23T00:08:45;7.80;99.90
49503;DHT22;35409;48.776;9.204;2023-02-23T00:11:15;7.80;99.90
49503;DHT22;35409;48.776;9.204;2023-02-23T00:13:43;7.80;99.90
49503;DHT22;35409;48.776;9.204;2023-02-23T00:16:21;7.90;99.90
49503;DHT22;35409;48.776;9.204;2023-02-23T00:18:53;7.90;99.90
49503;DHT22;35409;48.776;9.204;2023-02-23T00:21:22;7.90;99.90
49503;DHT22;35409;48.776;9.204;2023-02-23T00:23:51;8.00;99.90
49503;DHT22;35409;48.776;9.204;2023-02-23T00:26:18;8.00;99.90
49503;DHT22;35409;48.776;9.204;2023-02-23T00:28:48;8.00;99.90
49503;DHT22;35409;48.776;9.204;2023-02-23T00:31:15;8.00;99.90
49503;DHT22;35409;48.776;9.204;2023-02-23T00:33:41;8.00;99.90
49503;DHT22;35409;48.776;9.204;2023-02-23T00:36:12;8.00;99.90
49503;DHT22;35409;48.776;9.204;2023-02-23T00:38:39;8.00;99.90
49503;DHT22;35409;48.776;9.204;2023-02-23T00:41:10;7.90;99.90
49503;DHT22;35409;48.776;9.204;2023-02-23T00:43:38;7.90;99.90
49503;DHT22;35409;48.776;9.204;2023-02-23T00:46:15;7.90;99.90
49503;DHT22;35409;48.776;9.204;2023-02-23T00:48:42;7.80;99.90
49503;DHT22;35409;48.776;9.204;2023-02-23T00:51:08;7.80;99.90
49503;DHT22;35409;48.776;9.204;2023-02-23T00:53:34;7.70;99.90
49503;DHT22;35409;48.776;9.204;2023-02-23T00:56:02;7.60;99.90
49503;DHT22;35409;48.776;9.204;2023-02-23T00:58:29;7.60;99.90
49503;DHT22;35409;48.776;9.204;2023-02-23T01:00:56;7.60;99.90
49503;DHT22;35409;48.776;9.204;2023-02-23T01:03:27;7.50;99.90
49503;DHT22;35409;48.776;9.204;2023-02-23T01:05:53;7.40;99.90
49503;DHT22;35409;48.776;9.204;2023-02-23T01:08:20;7.40;99.90
49503;DHT22;35409;48.776;9.204;2023-02-23T01:10:46;7.30;99.90
49503;DHT22;35409;48.776;9.204;2023-02-23T01:13:19;7.30;99.90
49503;DHT22;35409;48.776;9.204;2023-02-23T01:15:45;7.30;99.90
49503;DHT22;35409;48.776;9.204;2023-02-23T01:18:13;7.30;99.90
49503;DHT22;35409;48.776;9.204;2023-02-23T01:20:38;7.30;99.90
49503;DHT22;35409;48.776;9.204;2023-02-23T01:23:07;7.20;99.90
49503;DHT22;35409;48.776;9.204;2023-02-23T01:25:33;7.20;99.90
49503;DHT22;35409;48.776;9.204;2023-02-23T01:27:59;7.20;99.90
49503;DHT22;35409;48.776;9.204;2023-02-23T01:30:25;7.20;99.90
49503;DHT22;35409;48.776;9.204;2023-02-23T01:32:51;7.20;99.90
49503;DHT22;35409;48.776;9.204;2023-02-23T01:35:17;7.20;99.90
49503;DHT22;35409;48.776;9.204;2023-02-23T01:37:43;7.20;99.90
49503;DHT22;35409;48.776;9.204;2023-02-23T01:40:15;7.20;99.90
49503;DHT22;35409;48.776;9.204;2023-02-23T01:42:45;7.20;99.90
49503;DHT22;35409;48.776;9.204;2023-02-23T01:45:34;7.10;99.90
49503;DHT22;35409;48.776;9.204;2023-02-23T01:48:16;7.10;99.90
49503;DHT22;35409;48.776;9.204;2023-02-23T01:53:18;7.00;99.90
49503;DHT22;35409;48.776;9.204;2023-02-23T01:55:48;7.00;99.90
49503;DHT22;35409;48.776;9.204;2023-02-23T01:58:16;7.00;99.90
49503;DHT22;35409;48.776;9.204;2023-02-23T02:00:50;7.00;99.90
49503;DHT22;35409;48.776;9.204;2023-02-23T02:03:25;7.00;99.90
49503;DHT22;35409;48.776;9.204;2023-02-23T02:05:53;7.00;99.90
49503;DHT22;35409;48.776;9.204;2023-02-23T02:08:21;7.00;99.90
49503;DHT22;35409;48.776;9.204;2023-02-23T02:10:50;7.00;99.90
49503;DHT22;35409;48.776;9.204;2023-02-23T02:13:22;7.00;99.90
49503;DHT22;35409;48.776;9.204;2023-02-23T02:16:01;7.00;99.90
49503;DHT22;35409;48.776;9.204;2023-02-23T02:18:46;7.00;99.90
49503;DHT22;35409;48.776;9.204;2023-02-23T02:38:32;7.10;99.90
49503;DHT22;35409;48.776;9.204;2023-02-23T02:45:55;7.20;99.90
49503;DHT22;35409;48.776;9.204;2023-02-23T02:51:10;7.10;99.90
49503;DHT22;35409;48.776;9.204;2023-02-23T02:56:22;7.20;99.90
49503;DHT22;35409;48.776;9.204;2023-02-23T02:58:52;7.20;99.90
49503;DHT22;35409;48.776;9.204;2023-02-23T03:01:18;7.10;99.90
49503;DHT22;35409;48.776;9.204;2023-02-23T03:04:20;7.10;99.90
49503;DHT22;35409;48.776;9.204;2023-02-23T03:10:45;7.10;99.90
49503;DHT22;35409;48.776;9.204;2023-02-23T03:13:39;7.10;99.90
49503;DHT22;35409;48.776;9.204;2023-02-23T03:16:58;7.10;99.90
49503;DHT22;35409;48.776;9.204;2023-02-23T03:19:59;7.10;99.90
49503;DHT22;35409;48.776;9.204;2023-02-23T03:23:01;7.10;99.90
49503;DHT22;35409;48.776;9.204;2023-02-23T03:26:04;7.10;99.90
49503;DHT22;35409;48.776;9.204;2023-02-23T03:29:15;7.10;99.90
49503;DHT22;35409;48.776;9.204;2023-02-23T03:32:32;7.10;99.90
49503;DHT22;35409;48.776;9.204;2023-02-23T03:38:52;7.20;99.90
49503;DHT22;35409;48.776;9.204;2023-02-23T03:41:40;7.20;99.90
49503;DHT22;35409;48.776;9.204;2023-02-23T03:44:36;7.20;99.90
49503;DHT22;35409;48.776;9.204;2023-02-23T03:47:24;7.20;99.90
49503;DHT22;35409;48.776;9.204;2023-02-23T03:50:20;7.20;99.90
49503;DHT22;35409;48.776;9.204;2023-02-23T03:53:05;7.20;99.90
49503;DHT22;35409;48.776;9.204;2023-02-23T03:55:54;7.20;99.90
49503;DHT22;35409;48.776;9.204;2023-02-23T03:58:46;7.20;99.90
49503;DHT22;35409;48.776;9.204;2023-02-23T04:01:32;7.20;99.90
49503;DHT22;35409;48.776;9.204;2023-02-23T04:04:19;7.20;99.90
49503;DHT22;35409;48.776;9.204;2023-02-23T04:07:06;7.20;99.90
49503;DHT22;35409;48.776;9.204;2023-02-23T04:09:50;7.10;99.90
49503;DHT22;35409;48.776;9.204;2023-02-23T04:12:59;7.10;99.90
49503;DHT22;35409;48.776;9.204;2023-02-23T04:15:56;7.20;99.90
49503;DHT22;35409;48.776;9.204;2023-02-23T04:18:24;7.20;99.90
49503;DHT22;35409;48.776;9.204;2023-02-23T04:20:51;7.10;99.90
49503;DHT22;35409;48.776;9.204;2023-02-23T04:23:17;7.10;99.90
49503;DHT22;35409;48.776;9.204;2023-02-23T04:25:43;7.20;99.90
49503;DHT22;35409;48.776;9.204;2023-02-23T04:28:08;7.10;99.90
49503;DHT22;35409;48.776;9.204;2023-02-23T04:30:34;7.20;99.90
49503;DHT22;35409;48.776;9.204;2023-02-23T04:33:00;7.20;99.90
49503;DHT22;35409;48.776;9.204;2023-02-23T04:35:26;7.20;99.90
49503;DHT22;35409;48.776;9.204;2023-02-23T04:37:53;7.20;99.90
49503;DHT22;35409;48.776;9.204;2023-02-23T04:40:18;7.20;99.90
49503;DHT22;35409;48.776;9.204;2023-02-23T04:42:44;7.20;99.90
49503;DHT22;35409;48.776;9.204;2023-02-23T04:45:10;7.20;99.90
49503;DHT22;35409;48.776;9.204;2023-02-23T04:47:36;7.20;99.90
49503;DHT22;35409;48.776;9.204;2023-02-23T04:50:03;7.20;99.90
49503;DHT22;35409;48.776;9.204;2023-02-23T04:52:29;7.20;99.90
49503;DHT22;35409;48.776;9.204;2023-02-23T04:54:55;7.20;99.90
49503;DHT22;35409;48.776;9.204;2023-02-23T04:57:21;7.10;99.90
49503;DHT22;35409;48.776;9.204;2023-02-23T04:59:46;7.10;99.90
49503;DHT22;35409;48.776;9.204;2023-02-23T05:02:12;7.10;99.90
49503;DHT22;35409;48.776;9.204;2023-02-23T05:04:38;7.10;99.90
49503;DHT22;35409;48.776;9.204;2023-02-23T05:07:04;7.10;99.90
49503;DHT22;35409;48.776;9.204;2023-02-23T05:09:30;7.10;99.90
49503;DHT22;35409;48.776;9.204;2023-02-23T05:11:56;7.10;99.90
49503;DHT22;35409;48.776;9.204;2023-02-23T05:14:21;7.10;99.90
49503;DHT22;35409;48.776;9.204;2023-02-23T05:16:47;7.00;99.90
49503;DHT22;35409;48.776;9.204;2023-02-23T05:19:13;7.10;99.90
49503;DHT22;35409;48.776;9.204;2023-02-23T05:21:39;7.00;99.90
49503;DHT22;35409;48.776;9.204;2023-02-23T05:24:05;7.10;99.90
49503;DHT22;35409;48.776;9.204;2023-02-23T05:26:31;7.10;99.90
49503;DHT22;35409;48.776;9.204;2023-02-23T05:28:57;7.10;99.90
49503;DHT22;35409;48.776;9.204;2023-02-23T05:31:23;7.10;99.90
49503;DHT22;35409;48.776;9.204;2023-02-23T05:33:49;7.10;99.90
49503;DHT22;35409;48.776;9.204;2023-02-23T05:36:16;7.10;99.90
49503;DHT22;35409;48.776;9.204;2023-02-23T05:38:43;7.10;99.90
49503;DHT22;35409;48.776;9.204;2023-02-23T05:41:13;7.10;99.90
49503;DHT22;35409;48.776;9.204;2023-02-23T05:43:38;7.10;99.90
49503;DHT22;35409;48.776;9.204;2023-02-23T05:46:08;7.10;99.90
49503;DHT22;35409;48.776;9.204;2023-02-23T05:48:34;7.10;99.90
49503;DHT22;35409;48.776;9.204;2023-02-23T05:51:04;7.20;99.90
49503;DHT22;35409;48.776;9.204;2023-02-23T05:53:30;7.20;99.90
49503;DHT22;35409;48.776;9.204;2023-02-23T05:55:56;7.20;99.90
49503;DHT22;35409;48.776;9.204;2023-02-23T05:58:22;7.20;99.90
49503;DHT22;35409;48.776;9.204;2023-02-23T06:00:48;7.30;99.90
49503;DHT22;35409;48.776;9.204;2023-02-23T06:03:13;7.30;99.90
49503;DHT22;35409;48.776;9.204;2023-02-23T06:05:40;7.20;99.90
49503;DHT22;35409;48.776;9.204;2023-02-23T06:08:07;7.20;99.90
49503;DHT22;35409;48.776;9.204;2023-02-23T06:10:33;7.20;99.90
49503;DHT22;35409;48.776;9.204;2023-02-23T06:12:58;7.20;99.90
49503;DHT22;35409;48.776;9.204;2023-02-23T06:15:24;7.10;99.90
49503;DHT22;35409;48.776;9.204;2023-02-23T06:17:49;7.10;99.90
49503;DHT22;35409;48.776;9.204;2023-02-23T06:20:15;7.10;99.90
49503;DHT22;35409;48.776;9.204;2023-02-23T06:22:41;7.10;99.90
49503;DHT22;35409;48.776;9.204;2023-02-23T06:25:07;7.10;99.90
49503;DHT22;35409;48.776;9.204;2023-02-23T06:27:37;7.10;99.90
49503;DHT22;35409;48.776;9.204;2023-02-23T06:30:04;7.10;99.90
49503;DHT22;35409;48.776;9.204;2023-02-23T06:32:29;7.10;99.90
49503;DHT22;35409;48.776;9.204;2023-02-23T06:34:55;7.10;99.90
49503;DHT22;35409;48.776;9.204;2023-02-23T06:37:21;7.20;99.90
49503;DHT22;35409;48.776;9.204;2023-02-23T06:39:46;7.20;99.90
49503;DHT22;35409;48.776;9.204;2023-02-23T06:42:15;7.20;99.90
49503;DHT22;35409;48.776;9.204;2023-02-23T06:44:40;7.20;99.90
49503;DHT22;35409;48.776;9.204;2023-02-23T06:47:06;7.20;99.90
49503;DHT22;35409;48.776;9.204;2023-02-23T06:49:32;7.30;99.90
49503;DHT22;35409;48.776;9.204;2023-02-23T06:51:58;7.30;99.90
49503;DHT22;35409;48.776;9.204;2023-02-23T06:54:23;7.20;99.90
49503;DHT22;35409;48.776;9.204;2023-02-23T06:56:49;7.30;99.90
49503;DHT22;35409;48.776;9.204;2023-02-23T06:59:15;7.30;99.90
49503;DHT22;35409;48.776;9.204;2023-02-23T07:01:41;7.30;99.90
49503;DHT22;35409;48.776;9.204;2023-02-23T07:04:10;7.30;99.90
49503;DHT22;35409;48.776;9.204;2023-02-23T07:06:36;7.30;99.90
49503;DHT22;35409;48.776;9.204;2023-02-23T07:09:03;7.40;99.90
49503;DHT22;35409;48.776;9.204;2023-02-23T07:11:28;7.40;99.90
49503;DHT22;35409;48.776;9.204;2023-02-23T07:13:57;7.40;99.90
49503;DHT22;35409;48.776;9.204;2023-02-23T07:16:23;7.40;99.90
49503;DHT22;35409;48.776;9.204;2023-02-23T07:18:48;7.40;99.90
49503;DHT22;35409;48.776;9.204;2023-02-23T07:21:14;7.50;99.90
49503;DHT22;35409;48.776;9.204;2023-02-23T07:23:40;7.50;99.90
49503;DHT22;35409;48.776;9.204;2023-02-23T07:26:05;7.60;99.90
49503;DHT22;35409;48.776;9.204;2023-02-23T07:28:31;7.60;99.90
49503;DHT22;35409;48.776;9.204;2023-02-23T07:30:57;7.70;99.90
49503;DHT22;35409;48.776;9.204;2023-02-23T07:33:23;7.80;99.90
49503;DHT22;35409;48.776;9.204;2023-02-23T07:35:50;7.80;99.90
49503;DHT22;35409;48.776;9.204;2023-02-23T07:38:16;7.90;99.90
49503;DHT22;35409;48.776;9.204;2023-02-23T07:40:42;8.00;99.90
49503;DHT22;35409;48.776;9.204;2023-02-23T07:43:07;8.10;99.90
49503;DHT22;35409;48.776;9.204;2023-02-23T07:45:33;8.30;99.90
49503;DHT22;35409;48.776;9.204;2023-02-23T07:47:58;8.40;99.90
49503;DHT22;35409;48.776;9.204;2023-02-23T07:50:25;8.50;99.90
49503;DHT22;35409;48.776;9.204;2023-02-23T07:52:51;8.60;99.90
49503;DHT22;35409;48.776;9.204;2023-02-23T07:55:17;8.70;99.90
49503;DHT22;35409;48.776;9.204;2023-02-23T07:57:43;8.80;99.90
49503;DHT22;35409;48.776;9.204;2023-02-23T08:00:10;8.90;99.90
49503;DHT22;35409;48.776;9.204;2023-02-23T08:02:36;9.00;99.90
49503;DHT22;35409;48.776;9.204;2023-02-23T08:05:01;9.00;99.90
49503;DHT22;35409;48.776;9.204;2023-02-23T08:07:27;9.00;99.90
49503;DHT22;35409;48.776;9.204;2023-02-23T08:09:53;9.10;99.90
49503;DHT22;35409;48.776;9.204;2023-02-23T08:12:18;9.10;99.90
49503;DHT22;35409;48.776;9.204;2023-02-23T08:14:44;9.10;99.90
49503;DHT22;35409;48.776;9.204;2023-02-23T08:17:10;9.10;99.90
49503;DHT22;35409;48.776;9.204;2023-02-23T08:19:36;9.20;99.90
49503;DHT22;35409;48.776;9.204;2023-02-23T08:22:03;9.20;99.90
49503;DHT22;35409;48.776;9.204;2023-02-23T08:24:28;9.20;99.90
49503;DHT22;35409;48.776;9.204;2023-02-23T08:26:56;9.20;99.90
49503;DHT22;35409;48.776;9.204;2023-02-23T08:29:23;9.30;99.90
49503;DHT22;35409;48.776;9.204;2023-02-23T08:31:49;9.40;99.90
49503;DHT22;35409;48.776;9.204;2023-02-23T08:34:16;9.50;99.90
49503;DHT22;35409;48.776;9.204;2023-02-23T08:36:42;9.60;99.90
49503;DHT22;35409;48.776;9.204;2023-02-23T08:39:10;9.70;99.90
49503;DHT22;35409;48.776;9.204;2023-02-23T08:41:36;9.80;99.90
49503;DHT22;35409;48.776;9.204;2023-02-23T08:44:01;9.90;99.90
49503;DHT22;35409;48.776;9.204;2023-02-23T08:46:27;9.90;99.90
49503;DHT22;35409;48.776;9.204;2023-02-23T08:48:52;10.00;99.90
49503;DHT22;35409;48.776;9.204;2023-02-23T08:51:19;10.00;99.90
49503;DHT22;35409;48.776;9.204;2023-02-23T08:53:45;10.00;99.90
49503;DHT22;35409;48.776;9.204;2023-02-23T08:56:10;10.00;99.90
49503;DHT22;35409;48.776;9.204;2023-02-23T08:58:38;10.10;99.90
49503;DHT22;35409;48.776;9.204;2023-02-23T09:01:04;10.20;99.90
49503;DHT22;35409;48.776;9.204;2023-02-23T09:03:30;10.20;99.90
49503;DHT22;35409;48.776;9.204;2023-02-23T09:06:07;10.20;99.90
49503;DHT22;35409;48.776;9.204;2023-02-23T09:08:33;10.30;99.90
49503;DHT22;35409;48.776;9.204;2023-02-23T09:10:59;10.40;99.90
49503;DHT22;35409;48.776;9.204;2023-02-23T09:13:25;10.40;99.90
49503;DHT22;35409;48.776;9.204;2023-02-23T09:15:50;10.50;99.90
49503;DHT22;35409;48.776;9.204;2023-02-23T09:18:16;10.70;99.90
49503;DHT22;35409;48.776;9.204;2023-02-23T09:20:43;10.80;99.90
49503;DHT22;35409;48.776;9.204;2023-02-23T09:23:12;11.00;99.90
49503;DHT22;35409;48.776;9.204;2023-02-23T09:25:41;11.10;99.90
49503;DHT22;35409;48.776;9.204;2023-02-23T09:28:10;11.20;99.90
49503;DHT22;35409;48.776;9.204;2023-02-23T09:30:36;11.20;99.90
49503;DHT22;35409;48.776;9.204;2023-02-23T09:33:02;11.30;99.90
49503;DHT22;35409;48.776;9.204;2023-02-23T09:35:28;11.40;99.90
49503;DHT22;35409;48.776;9.204;2023-02-23T09:37:55;11.50;99.90
49503;DHT22;35409;48.776;9.204;2023-02-23T09:40:26;11.60;99.90
49503;DHT22;35409;48.776;9.204;2023-02-23T09:48:15;11.80;99.90
49503;DHT22;35409;48.776;9.204;2023-02-23T09:50:50;11.80;99.90
49503;DHT22;35409;48.776;9.204;2023-02-23T09:55:49;12.10;99.90
49503;DHT22;35409;48.776;9.204;2023-02-23T09:58:25;12.10;99.90
49503;DHT22;35409;48.776;9.204;2023-02-23T10:06:21;12.40;99.90
49503;DHT22;35409;48.776;9.204;2023-02-23T10:16:27;12.80;99.90
49503;DHT22;35409;48.776;9.204;2023-02-23T10:19:05;12.90;99.90
49503;DHT22;35409;48.776;9.204;2023-02-23T10:21:39;12.90;99.90
49503;DHT22;35409;48.776;9.204;2023-02-23T10:24:19;12.90;99.90
49503;DHT22;35409;48.776;9.204;2023-02-23T10:26:59;12.90;99.90
49503;DHT22;35409;48.776;9.204;2023-02-23T10:29:33;12.80;99.90
49503;DHT22;35409;48.776;9.204;2023-02-23T10:32:16;12.80;99.90
49503;DHT22;35409;48.776;9.204;2023-02-23T10:34:45;12.90;99.90
49503;DHT22;35409;48.776;9.204;2023-02-23T10:37:15;12.90;99.90
49503;DHT22;35409;48.776;9.204;2023-02-23T10:39:41;13.10;99.90
49503;DHT22;35409;48.776;9.204;2023-02-23T10:42:13;13.20;99.90
49503;DHT22;35409;48.776;9.204;2023-02-23T10:44:42;13.30;99.90
49503;DHT22;35409;48.776;9.204;2023-02-23T10:47:13;13.40;99.90
49503;DHT22;35409;48.776;9.204;2023-02-23T10:49:48;13.60;99.90
49503;DHT22;35409;48.776;9.204;2023-02-23T10:52:19;13.70;99.90
49503;DHT22;35409;48.776;9.204;2023-02-23T10:54:48;13.80;99.90
49503;DHT22;35409;48.776;9.204;2023-02-23T10:57:29;14.00;99.90
49503;DHT22;35409;48.776;9.204;2023-02-23T11:02:45;13.80;99.90
49503;DHT22;35409;48.776;9.204;2023-02-23T11:11:03;13.90;99.90
49503;DHT22;35409;48.776;9.204;2023-02-23T11:13:43;13.90;99.90
49503;DHT22;35409;48.776;9.204;2023-02-23T11:16:21;14.00;99.90
49503;DHT22;35409;48.776;9.204;2023-02-23T11:18:59;14.10;99.90
49503;DHT22;35409;48.776;9.204;2023-02-23T11:21:30;14.20;99.90
49503;DHT22;35409;48.776;9.204;2023-02-23T11:24:24;14.30;99.90
49503;DHT22;35409;48.776;9.204;2023-02-23T11:26:52;14.40;99.90
49503;DHT22;35409;48.776;9.204;2023-02-23T11:29:35;14.50;99.90
49503;DHT22;35409;48.776;9.204;2023-02-23T11:32:31;14.60;99.90
49503;DHT22;35409;48.776;9.204;2023-02-23T11:35:25;14.50;99.90
49503;DHT22;35409;48.776;9.204;2023-02-23T11:37:52;14.40;99.90
49503;DHT22;35409;48.776;9.204;2023-02-23T11:40:28;14.40;99.90
49503;DHT22;35409;48.776;9.204;2023-02-23T11:43:06;14.40;99.90
49503;DHT22;35409;48.776;9.204;2023-02-23T11:45:47;14.30;99.90
49503;DHT22;35409;48.776;9.204;2023-02-23T11:48:31;14.20;99.90
49503;DHT22;35409;48.776;9.204;2023-02-23T11:50:58;14.10;99.90
49503;DHT22;35409;48.776;9.204;2023-02-23T11:56:00;14.10;99.90
49503;DHT22;35409;48.776;9.204;2023-02-23T11:58:45;14.20;99.90
49503;DHT22;35409;48.776;9.204;2023-02-23T12:01:14;14.30;99.90
49503;DHT22;35409;48.776;9.204;2023-02-23T12:03:55;14.50;99.90
49503;DHT22;35409;48.776;9.204;2023-02-23T12:06:31;14.60;99.90
49503;DHT22;35409;48.776;9.204;2023-02-23T12:09:03;14.70;99.90
49503;DHT22;35409;48.776;9.204;2023-02-23T12:11:36;14.90;99.90
49503;DHT22;35409;48.776;9.204;2023-02-23T12:14:15;15.00;99.90
49503;DHT22;35409;48.776;9.204;2023-02-23T12:16:47;15.10;99.90
49503;DHT22;35409;48.776;9.204;2023-02-23T12:20:01;15.00;99.90
49503;DHT22;35409;48.776;9.204;2023-02-23T12:22:16;15.00;99.90
49503;DHT22;35409;48.776;9.204;2023-02-23T12:24:47;14.90;99.90
49503;DHT22;35409;48.776;9.204;2023-02-23T12:27:24;14.80;99.90
49503;DHT22;35409;48.776;9.204;2023-02-23T12:38:11;14.40;99.90
49503;DHT22;35409;48.776;9.204;2023-02-23T12:40:39;14.30;99.90
49503;DHT22;35409;48.776;9.204;2023-02-23T12:43:36;14.20;99.90
49503;DHT22;35409;48.776;9.204;2023-02-23T12:46:11;14.20;99.90
49503;DHT22;35409;48.776;9.204;2023-02-23T12:51:38;14.20;99.90
49503;DHT22;35409;48.776;9.204;2023-02-23T12:54:08;14.10;99.90
49503;DHT22;35409;48.776;9.204;2023-02-23T13:04:55;14.20;99.90
49503;DHT22;35409;48.776;9.204;2023-02-23T13:13:24;14.30;99.90
49503;DHT22;35409;48.776;9.204;2023-02-23T13:16:04;14.30;99.90
49503;DHT22;35409;48.776;9.204;2023-02-23T13:19:02;14.30;99.90
49503;DHT22;35409;48.776;9.204;2023-02-23T13:21:35;14.30;99.90
49503;DHT22;35409;48.776;9.204;2023-02-23T13:24:18;14.30;99.90
49503;DHT22;35409;48.776;9.204;2023-02-23T13:27:02;14.30;99.90
49503;DHT22;35409;48.776;9.204;2023-02-23T13:29:41;14.30;99.90
49503;DHT22;35409;48.776;9.204;2023-02-23T13:32:15;14.20;99.90
49503;DHT22;35409;48.776;9.204;2023-02-23T13:35:04;14.20;99.90
49503;DHT22;35409;48.776;9.204;2023-02-23T13:38:13;14.10;99.90
49503;DHT22;35409;48.776;9.204;2023-02-23T13:40:56;14.00;99.90
49503;DHT22;35409;48.776;9.204;2023-02-23T13:43:26;13.90;99.90
49503;DHT22;35409;48.776;9.204;2023-02-23T13:51:58;13.90;99.90
49503;DHT22;35409;48.776;9.204;2023-02-23T13:54:31;13.70;99.90
49503;DHT22;35409;48.776;9.204;2023-02-23T13:57:02;13.70;99.90
49503;DHT22;35409;48.776;9.204;2023-02-23T13:59:36;13.60;99.90
49503;DHT22;35409;48.776;9.204;2023-02-23T14:02:21;13.50;99.90
49503;DHT22;35409;48.776;9.204;2023-02-23T14:04:48;13.50;99.90
49503;DHT22;35409;48.776;9.204;2023-02-23T14:07:28;13.40;99.90
49503;DHT22;35409;48.776;9.204;2023-02-23T14:10:03;13.30;99.90
49503;DHT22;35409;48.776;9.204;2023-02-23T14:12:37;13.30;99.90
49503;DHT22;35409;48.776;9.204;2023-02-23T14:18:03;13.30;99.90
49503;DHT22;35409;48.776;9.204;2023-02-23T14:20:38;13.30;99.90
49503;DHT22;35409;48.776;9.204;2023-02-23T14:23:26;13.30;99.90
49503;DHT22;35409;48.776;9.204;2023-02-23T14:29:24;13.20;99.90
49503;DHT22;35409;48.776;9.204;2023-02-23T14:37:38;13.20;99.90
49503;DHT22;35409;48.776;9.204;2023-02-23T14:40:14;13.20;99.90
49503;DHT22;35409;48.776;9.204;2023-02-23T14:42:46;13.20;99.90
49503;DHT22;35409;48.776;9.204;2023-02-23T14:45:25;13.20;99.90
49503;DHT22;35409;48.776;9.204;2023-02-23T14:48:00;13.20;99.90
49503;DHT22;35409;48.776;9.204;2023-02-23T14:50:30;13.10;99.90
49503;DHT22;35409;48.776;9.204;2023-02-23T14:52:57;13.20;99.90
49503;DHT22;35409;48.776;9.204;2023-02-23T14:55:28;13.20;99.90
49503;DHT22;35409;48.776;9.204;2023-02-23T14:57:55;13.20;99.90
49503;DHT22;35409;48.776;9.204;2023-02-23T15:00:22;13.20;99.90
49503;DHT22;35409;48.776;9.204;2023-02-23T15:05:31;13.10;99.90
49503;DHT22;35409;48.776;9.204;2023-02-23T15:08:03;13.10;99.90
49503;DHT22;35409;48.776;9.204;2023-02-23T15:10:33;13.20;99.90
49503;DHT22;35409;48.776;9.204;2023-02-23T15:13:00;13.20;99.90
49503;DHT22;35409;48.776;9.204;2023-02-23T15:15:33;13.20;99.90
49503;DHT22;35409;48.776;9.204;2023-02-23T15:18:02;13.20;99.90
49503;DHT22;35409;48.776;9.204;2023-02-23T15:20:32;13.10;99.90
49503;DHT22;35409;48.776;9.204;2023-02-23T15:23:01;13.10;99.90
49503;DHT22;35409;48.776;9.204;2023-02-23T15:25:39;13.00;99.90
49503;DHT22;35409;48.776;9.204;2023-02-23T15:28:23;13.00;99.90
49503;DHT22;35409;48.776;9.204;2023-02-23T15:30:51;13.00;99.90
49503;DHT22;35409;48.776;9.204;2023-02-23T15:33:18;13.00;99.90
49503;DHT22;35409;48.776;9.204;2023-02-23T15:36:06;13.10;99.90
49503;DHT22;35409;48.776;9.204;2023-02-23T15:38:40;13.10;99.90
49503;DHT22;35409;48.776;9.204;2023-02-23T15:41:30;12.90;99.90
49503;DHT22;35409;48.776;9.204;2023-02-23T15:44:22;12.80;99.90
49503;DHT22;35409;48.776;9.204;2023-02-23T15:46:56;12.60;99.90
49503;DHT22;35409;48.776;9.204;2023-02-23T15:49:30;12.50;99.90
49503;DHT22;35409;48.776;9.204;2023-02-23T15:52:02;12.40;99.90
49503;DHT22;35409;48.776;9.204;2023-02-23T15:54:33;12.40;99.90
49503;DHT22;35409;48.776;9.204;2023-02-23T15:57:16;12.40;99.90
49503;DHT22;35409;48.776;9.204;2023-02-23T15:59:46;12.40;99.90
49503;DHT22;35409;48.776;9.204;2023-02-23T16:02:15;12.30;99.90
49503;DHT22;35409;48.776;9.204;2023-02-23T16:04:44;12.30;99.90
49503;DHT22;35409;48.776;9.204;2023-02-23T16:07:41;12.30;99.90
49503;DHT22;35409;48.776;9.204;2023-02-23T16:10:22;12.30;99.90
49503;DHT22;35409;48.776;9.204;2023-02-23T16:12:50;12.30;99.90
49503;DHT22;35409;48.776;9.204;2023-02-23T16:15:25;12.20;99.90
49503;DHT22;35409;48.776;9.204;2023-02-23T16:18:01;12.20;99.90
49503;DHT22;35409;48.776;9.204;2023-02-23T16:20:37;12.10;99.90
49503;DHT22;35409;48.776;9.204;2023-02-23T16:23:09;12.00;99.90
49503;DHT22;35409;48.776;9.204;2023-02-23T16:25:41;11.90;99.90
49503;DHT22;35409;48.776;9.204;2023-02-23T16:28:11;11.90;99.90
49503;DHT22;35409;48.776;9.204;2023-02-23T16:30:39;11.80;99.90
49503;DHT22;35409;48.776;9.204;2023-02-23T16:33:12;11.70;99.90
49503;DHT22;35409;48.776;9.204;2023-02-23T16:35:45;11.70;99.90
49503;DHT22;35409;48.776;9.204;2023-02-23T16:38:24;11.70;99.90
49503;DHT22;35409;48.776;9.204;2023-02-23T16:40:49;11.60;99.90
49503;DHT22;35409;48.776;9.204;2023-02-23T16:43:15;11.50;99.90
49503;DHT22;35409;48.776;9.204;2023-02-23T16:45:42;11.40;99.90
49503;DHT22;35409;48.776;9.204;2023-02-23T16:48:15;11.40;99.90
49503;DHT22;35409;48.776;9.204;2023-02-23T16:50:41;11.30;99.90
49503;DHT22;35409;48.776;9.204;2023-02-23T16:53:09;11.30;99.90
49503;DHT22;35409;48.776;9.204;2023-02-23T16:55:55;11.20;99.90
49503;DHT22;35409;48.776;9.204;2023-02-23T16:58:25;11.10;99.90
49503;DHT22;35409;48.776;9.204;2023-02-23T17:00:51;11.10;99.90
49503;DHT22;35409;48.776;9.204;2023-02-23T17:03:21;11.00;99.90
49503;DHT22;35409;48.776;9.204;2023-02-23T17:05:47;11.10;99.90
49503;DHT22;35409;48.776;9.204;2023-02-23T17:08:14;11.10;99.90
49503;DHT22;35409;48.776;9.204;2023-02-23T17:10:40;11.00;99.90
49503;DHT22;35409;48.776;9.204;2023-02-23T17:15:42;10.90;99.90
49503;DHT22;35409;48.776;9.204;2023-02-23T17:18:12;10.90;99.90
49503;DHT22;35409;48.776;9.204;2023-02-23T17:20:38;10.90;99.90
49503;DHT22;35409;48.776;9.204;2023-02-23T17:23:04;10.90;99.90
49503;DHT22;35409;48.776;9.204;2023-02-23T17:25:31;10.90;99.90
49503;DHT22;35409;48.776;9.204;2023-02-23T17:27:57;10.90;99.90
49503;DHT22;35409;48.776;9.204;2023-02-23T17:30:23;10.80;99.90
49503;DHT22;35409;48.776;9.204;2023-02-23T17:32:54;10.80;99.90
49503;DHT22;35409;48.776;9.204;2023-02-23T17:35:20;10.70;99.90
49503;DHT22;35409;48.776;9.204;2023-02-23T17:37:46;10.70;99.90
49503;DHT22;35409;48.776;9.204;2023-02-23T17:40:16;10.70;99.90
49503;DHT22;35409;48.776;9.204;2023-02-23T17:42:42;10.70;99.90
49503;DHT22;35409;48.776;9.204;2023-02-23T17:45:08;10.70;99.90
49503;DHT22;35409;48.776;9.204;2023-02-23T17:47:36;10.70;99.90
49503;DHT22;35409;48.776;9.204;2023-02-23T17:50:07;10.70;99.90
49503;DHT22;35409;48.776;9.204;2023-02-23T17:52:33;10.70;99.90
49503;DHT22;35409;48.776;9.204;2023-02-23T17:54:58;10.70;99.90
49503;DHT22;35409;48.776;9.204;2023-02-23T17:57:25;10.60;99.90
49503;DHT22;35409;48.776;9.204;2023-02-23T17:59:51;10.60;99.90
49503;DHT22;35409;48.776;9.204;2023-02-23T18:02:19;10.60;99.90
49503;DHT22;35409;48.776;9.204;2023-02-23T18:04:46;10.60;99.90